sensor_id;sensor_type;location;lat;lon;timestamp;P1;durP1;ratioP1;P2;durP2;ratioP2
5058;SDS011;2548;52.050;11.036;2022-08-19T00:01:50;28.80;;;25.13;;
5058;SDS011;2548;52.050;11.036;2022-08-19T00:04:20;28.57;;;25.83;;
5058;SDS011;2548;52.050;11.036;2022-08-19T00:06:49;27.07;;;24.13;;
5058;SDS011;2548;52.050;11.036;2022-08-19T00:09:18;28.87;;;23.83;;
5058;SDS011;2548;52.050;11.036;2022-08-19T00:11:47;31.80;;;24.93;;
5058;SDS011;2548;52.050;11.036;2022-08-19T00:14:15;33.70;;;23.70;;
5058;SDS011;2548;52.050;11.036;2022-08-19T00:16:44;32.37;;;24.73;;
5058;SDS011;2548;52.050;11.036;2022-08-19T00:19:14;27.90;;;23.43;;
5058;SDS011;2548;52.050;11.036;2022-08-19T00:21:42;27.87;;;25.07;;
5058;SDS011;2548;52.050;11.036;2022-08-19T00:24:11;27.77;;;24.77;;
5058;SDS011;2548;52.050;11.036;2022-08-19T00:26:40;32.90;;;23.53;;
5058;SDS011;2548;52.050;11.036;2022-08-19T00:29:10;29.03;;;25.77;;
5058;SDS011;2548;52.050;11.036;2022-08-19T00:31:38;26.73;;;23.90;;
5058;SDS011;2548;52.050;11.036;2022-08-19T00:34:07;29.80;;;23.73;;
5058;SDS011;2548;52.050;11.036;2022-08-19T00:36:36;26.17;;;23.37;;
5058;SDS011;2548;52.050;11.036;2022-08-19T00:39:03;24.10;;;21.60;;
5058;SDS011;2548;52.050;11.036;2022-08-19T00:41:31;23.30;;;20.90;;
5058;SDS011;2548;52.050;11.036;2022-08-19T00:44:00;28.03;;;23.77;;
5058;SDS011;2548;52.050;11.036;2022-08-19T00:46:30;29.83;;;23.07;;
5058;SDS011;2548;52.050;11.036;2022-08-19T00:48:59;28.10;;;22.80;;
5058;SDS011;2548;52.050;11.036;2022-08-19T00:51:28;28.47;;;24.07;;
5058;SDS011;2548;52.050;11.036;2022-08-19T00:53:59;27.80;;;21.93;;
5058;SDS011;2548;52.050;11.036;2022-08-19T00:56:28;23.97;;;21.43;;
5058;SDS011;2548;52.050;11.036;2022-08-19T00:58:57;22.57;;;20.30;;
5058;SDS011;2548;52.050;11.036;2022-08-19T01:01:27;30.50;;;21.70;;
5058;SDS011;2548;52.050;11.036;2022-08-19T01:03:55;23.77;;;20.13;;
5058;SDS011;2548;52.050;11.036;2022-08-19T01:06:22;19.63;;;17.73;;
5058;SDS011;2548;52.050;11.036;2022-08-19T01:08:49;22.67;;;17.90;;
5058;SDS011;2548;52.050;11.036;2022-08-19T01:11:18;22.60;;;19.10;;
5058;SDS011;2548;52.050;11.036;2022-08-19T01:13:46;20.90;;;18.80;;
5058;SDS011;2548;52.050;11.036;2022-08-19T01:16:14;19.60;;;17.57;;
5058;SDS011;2548;52.050;11.036;2022-08-19T01:18:43;21.73;;;18.47;;
5058;SDS011;2548;52.050;11.036;2022-08-19T01:21:12;21.93;;;19.60;;
5058;SDS011;2548;52.050;11.036;2022-08-19T01:23:46;31.33;;;18.60;;
5058;SDS011;2548;52.050;11.036;2022-08-19T01:26:15;20.13;;;18.07;;
5058;SDS011;2548;52.050;11.036;2022-08-19T01:28:45;23.90;;;17.57;;
5058;SDS011;2548;52.050;11.036;2022-08-19T01:31:17;21.40;;;18.17;;
5058;SDS011;2548;52.050;11.036;2022-08-19T01:33:48;29.20;;;18.10;;
5058;SDS011;2548;52.050;11.036;2022-08-19T01:36:29;25.87;;;19.13;;
5058;SDS011;2548;52.050;11.036;2022-08-19T01:39:00;21.47;;;19.37;;
5058;SDS011;2548;52.050;11.036;2022-08-19T01:41:28;24.20;;;18.67;;
5058;SDS011;2548;52.050;11.036;2022-08-19T01:43:55;25.00;;;19.23;;
5058;SDS011;2548;52.050;11.036;2022-08-19T01:46:23;24.13;;;18.80;;
5058;SDS011;2548;52.050;11.036;2022-08-19T01:48:50;25.67;;;21.83;;
5058;SDS011;2548;52.050;11.036;2022-08-19T01:51:17;22.30;;;18.80;;
5058;SDS011;2548;52.050;11.036;2022-08-19T01:53:46;23.03;;;20.13;;
5058;SDS011;2548;52.050;11.036;2022-08-19T01:56:16;21.73;;;19.50;;
5058;SDS011;2548;52.050;11.036;2022-08-19T01:58:47;23.43;;;20.00;;
5058;SDS011;2548;52.050;11.036;2022-08-19T02:01:18;23.07;;;18.50;;
5058;SDS011;2548;52.050;11.036;2022-08-19T02:03:46;26.60;;;21.73;;
5058;SDS011;2548;52.050;11.036;2022-08-19T02:06:13;27.00;;;19.40;;
5058;SDS011;2548;52.050;11.036;2022-08-19T02:08:42;25.10;;;20.77;;
5058;SDS011;2548;52.050;11.036;2022-08-19T02:11:20;22.80;;;18.70;;
5058;SDS011;2548;52.050;11.036;2022-08-19T02:13:49;25.83;;;20.50;;
5058;SDS011;2548;52.050;11.036;2022-08-19T02:16:17;25.00;;;21.77;;
5058;SDS011;2548;52.050;11.036;2022-08-19T02:18:45;23.03;;;19.17;;
5058;SDS011;2548;52.050;11.036;2022-08-19T02:21:14;24.30;;;19.63;;
5058;SDS011;2548;52.050;11.036;2022-08-19T02:23:41;18.93;;;16.90;;
5058;SDS011;2548;52.050;11.036;2022-08-19T02:26:09;25.43;;;17.80;;
5058;SDS011;2548;52.050;11.036;2022-08-19T02:28:39;17.83;;;15.83;;
5058;SDS011;2548;52.050;11.036;2022-08-19T02:31:09;27.43;;;18.77;;
5058;SDS011;2548;52.050;11.036;2022-08-19T02:33:37;24.57;;;17.10;;
5058;SDS011;2548;52.050;11.036;2022-08-19T02:36:05;24.20;;;15.70;;
5058;SDS011;2548;52.050;11.036;2022-08-19T02:38:34;19.23;;;14.57;;
5058;SDS011;2548;52.050;11.036;2022-08-19T02:41:04;18.20;;;15.67;;
5058;SDS011;2548;52.050;11.036;2022-08-19T02:43:35;21.53;;;16.30;;
5058;SDS011;2548;52.050;11.036;2022-08-19T02:46:12;22.23;;;17.20;;
5058;SDS011;2548;52.050;11.036;2022-08-19T02:48:43;16.73;;;15.00;;
5058;SDS011;2548;52.050;11.036;2022-08-19T02:51:15;19.67;;;14.97;;
5058;SDS011;2548;52.050;11.036;2022-08-19T02:53:43;24.60;;;15.40;;
5058;SDS011;2548;52.050;11.036;2022-08-19T02:56:11;18.83;;;15.03;;
5058;SDS011;2548;52.050;11.036;2022-08-19T02:58:38;18.53;;;15.83;;
5058;SDS011;2548;52.050;11.036;2022-08-19T03:01:07;19.47;;;16.23;;
5058;SDS011;2548;52.050;11.036;2022-08-19T03:03:36;22.23;;;15.33;;
5058;SDS011;2548;52.050;11.036;2022-08-19T03:06:05;18.40;;;15.50;;
5058;SDS011;2548;52.050;11.036;2022-08-19T03:08:33;19.67;;;16.43;;
5058;SDS011;2548;52.050;11.036;2022-08-19T03:11:01;18.77;;;15.40;;
5058;SDS011;2548;52.050;11.036;2022-08-19T03:13:29;17.90;;;16.00;;
5058;SDS011;2548;52.050;11.036;2022-08-19T03:15:57;23.27;;;15.40;;
5058;SDS011;2548;52.050;11.036;2022-08-19T03:18:24;18.13;;;14.73;;
5058;SDS011;2548;52.050;11.036;2022-08-19T03:20:53;18.63;;;15.40;;
5058;SDS011;2548;52.050;11.036;2022-08-19T03:23:21;19.27;;;15.37;;
5058;SDS011;2548;52.050;11.036;2022-08-19T03:25:50;25.07;;;18.17;;
5058;SDS011;2548;52.050;11.036;2022-08-19T03:28:19;18.70;;;15.50;;
5058;SDS011;2548;52.050;11.036;2022-08-19T03:30:57;19.10;;;15.57;;
5058;SDS011;2548;52.050;11.036;2022-08-19T03:33:26;23.33;;;17.00;;
5058;SDS011;2548;52.050;11.036;2022-08-19T03:36:09;19.23;;;15.70;;
5058;SDS011;2548;52.050;11.036;2022-08-19T03:38:38;17.97;;;16.27;;
5058;SDS011;2548;52.050;11.036;2022-08-19T03:41:10;18.53;;;16.70;;
5058;SDS011;2548;52.050;11.036;2022-08-19T03:43:39;24.30;;;16.50;;
5058;SDS011;2548;52.050;11.036;2022-08-19T03:46:07;18.57;;;14.67;;
5058;SDS011;2548;52.050;11.036;2022-08-19T03:48:36;19.23;;;17.13;;
5058;SDS011;2548;52.050;11.036;2022-08-19T03:51:05;16.53;;;14.90;;
5058;SDS011;2548;52.050;11.036;2022-08-19T03:53:34;16.57;;;14.87;;
5058;SDS011;2548;52.050;11.036;2022-08-19T03:56:02;17.90;;;16.03;;
5058;SDS011;2548;52.050;11.036;2022-08-19T03:58:30;23.93;;;16.53;;
5058;SDS011;2548;52.050;11.036;2022-08-19T04:00:57;19.07;;;17.07;;
5058;SDS011;2548;52.050;11.036;2022-08-19T04:03:25;26.77;;;16.13;;
5058;SDS011;2548;52.050;11.036;2022-08-19T04:05:53;19.30;;;14.87;;
5058;SDS011;2548;52.050;11.036;2022-08-19T04:08:20;17.90;;;14.83;;
5058;SDS011;2548;52.050;11.036;2022-08-19T04:10:49;25.97;;;15.83;;
5058;SDS011;2548;52.050;11.036;2022-08-19T04:13:17;16.43;;;14.30;;
5058;SDS011;2548;52.050;11.036;2022-08-19T04:15:45;34.23;;;15.90;;
5058;SDS011;2548;52.050;11.036;2022-08-19T04:18:13;24.00;;;14.23;;
5058;SDS011;2548;52.050;11.036;2022-08-19T04:20:42;24.10;;;15.40;;
5058;SDS011;2548;52.050;11.036;2022-08-19T04:23:11;17.23;;;14.90;;
5058;SDS011;2548;52.050;11.036;2022-08-19T04:25:39;18.83;;;15.43;;
5058;SDS011;2548;52.050;11.036;2022-08-19T04:28:12;26.47;;;15.67;;
5058;SDS011;2548;52.050;11.036;2022-08-19T04:30:40;27.50;;;16.33;;
5058;SDS011;2548;52.050;11.036;2022-08-19T04:33:09;18.47;;;16.57;;
5058;SDS011;2548;52.050;11.036;2022-08-19T04:35:38;19.80;;;16.83;;
5058;SDS011;2548;52.050;11.036;2022-08-19T04:38:07;15.20;;;13.70;;
5058;SDS011;2548;52.050;11.036;2022-08-19T04:40:39;24.27;;;15.23;;
5058;SDS011;2548;52.050;11.036;2022-08-19T04:43:27;21.30;;;14.50;;
5058;SDS011;2548;52.050;11.036;2022-08-19T04:45:55;20.37;;;15.27;;
5058;SDS011;2548;52.050;11.036;2022-08-19T04:48:22;21.20;;;14.93;;
5058;SDS011;2548;52.050;11.036;2022-08-19T04:50:52;18.37;;;15.57;;
5058;SDS011;2548;52.050;11.036;2022-08-19T04:53:23;16.10;;;14.40;;
5058;SDS011;2548;52.050;11.036;2022-08-19T04:55:54;20.47;;;16.70;;
5058;SDS011;2548;52.050;11.036;2022-08-19T04:58:22;21.63;;;16.00;;
5058;SDS011;2548;52.050;11.036;2022-08-19T05:00:52;19.53;;;15.37;;
5058;SDS011;2548;52.050;11.036;2022-08-19T05:03:20;23.10;;;15.80;;
5058;SDS011;2548;52.050;11.036;2022-08-19T05:05:48;26.63;;;17.70;;
5058;SDS011;2548;52.050;11.036;2022-08-19T05:08:16;18.40;;;15.30;;
5058;SDS011;2548;52.050;11.036;2022-08-19T05:10:47;20.27;;;16.10;;
5058;SDS011;2548;52.050;11.036;2022-08-19T05:13:17;24.20;;;16.10;;
5058;SDS011;2548;52.050;11.036;2022-08-19T05:15:54;24.83;;;16.60;;
5058;SDS011;2548;52.050;11.036;2022-08-19T05:18:23;23.03;;;17.27;;
5058;SDS011;2548;52.050;11.036;2022-08-19T05:21:07;22.13;;;15.77;;
5058;SDS011;2548;52.050;11.036;2022-08-19T05:24:04;25.20;;;15.63;;
5058;SDS011;2548;52.050;11.036;2022-08-19T05:26:34;17.97;;;14.70;;
5058;SDS011;2548;52.050;11.036;2022-08-19T05:29:02;22.03;;;15.17;;
5058;SDS011;2548;52.050;11.036;2022-08-19T05:31:31;20.80;;;16.00;;
5058;SDS011;2548;52.050;11.036;2022-08-19T05:33:59;19.83;;;15.60;;
5058;SDS011;2548;52.050;11.036;2022-08-19T05:36:27;19.63;;;16.17;;
5058;SDS011;2548;52.050;11.036;2022-08-19T05:38:55;27.40;;;16.37;;
5058;SDS011;2548;52.050;11.036;2022-08-19T05:41:22;24.27;;;15.77;;
5058;SDS011;2548;52.050;11.036;2022-08-19T05:43:56;21.70;;;14.53;;
5058;SDS011;2548;52.050;11.036;2022-08-19T05:46:23;20.53;;;15.57;;
5058;SDS011;2548;52.050;11.036;2022-08-19T05:48:52;27.97;;;15.43;;
5058;SDS011;2548;52.050;11.036;2022-08-19T05:51:22;24.43;;;15.63;;
5058;SDS011;2548;52.050;11.036;2022-08-19T05:53:50;20.57;;;14.40;;
5058;SDS011;2548;52.050;11.036;2022-08-19T05:56:17;17.50;;;14.37;;
5058;SDS011;2548;52.050;11.036;2022-08-19T05:58:46;19.33;;;13.97;;
5058;SDS011;2548;52.050;11.036;2022-08-19T06:01:14;21.80;;;14.97;;
5058;SDS011;2548;52.050;11.036;2022-08-19T06:03:44;19.30;;;14.63;;
5058;SDS011;2548;52.050;11.036;2022-08-19T06:06:15;22.33;;;14.67;;
5058;SDS011;2548;52.050;11.036;2022-08-19T06:08:43;16.87;;;13.30;;
5058;SDS011;2548;52.050;11.036;2022-08-19T06:11:17;18.87;;;14.90;;
5058;SDS011;2548;52.050;11.036;2022-08-19T06:13:47;18.90;;;14.60;;
5058;SDS011;2548;52.050;11.036;2022-08-19T06:16:18;24.33;;;15.67;;
5058;SDS011;2548;52.050;11.036;2022-08-19T06:18:48;16.97;;;15.17;;
5058;SDS011;2548;52.050;11.036;2022-08-19T06:21:19;18.83;;;15.43;;
5058;SDS011;2548;52.050;11.036;2022-08-19T06:23:48;21.20;;;15.20;;
5058;SDS011;2548;52.050;11.036;2022-08-19T06:26:17;19.20;;;14.93;;
5058;SDS011;2548;52.050;11.036;2022-08-19T06:28:46;18.63;;;14.77;;
5058;SDS011;2548;52.050;11.036;2022-08-19T06:31:15;25.80;;;15.37;;
5058;SDS011;2548;52.050;11.036;2022-08-19T06:33:46;28.23;;;16.47;;
5058;SDS011;2548;52.050;11.036;2022-08-19T06:36:19;18.63;;;14.43;;
5058;SDS011;2548;52.050;11.036;2022-08-19T06:38:52;16.20;;;14.50;;
5058;SDS011;2548;52.050;11.036;2022-08-19T06:41:20;21.20;;;14.50;;
5058;SDS011;2548;52.050;11.036;2022-08-19T06:43:47;18.30;;;13.97;;
5058;SDS011;2548;52.050;11.036;2022-08-19T06:46:16;20.07;;;13.87;;
5058;SDS011;2548;52.050;11.036;2022-08-19T06:48:44;19.50;;;15.30;;
5058;SDS011;2548;52.050;11.036;2022-08-19T06:51:12;21.17;;;14.30;;
5058;SDS011;2548;52.050;11.036;2022-08-19T06:53:42;19.83;;;13.57;;
5058;SDS011;2548;52.050;11.036;2022-08-19T06:56:12;15.90;;;14.23;;
5058;SDS011;2548;52.050;11.036;2022-08-19T06:58:40;17.60;;;14.47;;
5058;SDS011;2548;52.050;11.036;2022-08-19T07:01:08;14.97;;;13.43;;
5058;SDS011;2548;52.050;11.036;2022-08-19T07:03:36;15.97;;;13.40;;
5058;SDS011;2548;52.050;11.036;2022-08-19T07:06:05;17.27;;;13.90;;
5058;SDS011;2548;52.050;11.036;2022-08-19T07:08:33;19.90;;;15.10;;
5058;SDS011;2548;52.050;11.036;2022-08-19T07:11:03;16.90;;;13.83;;
5058;SDS011;2548;52.050;11.036;2022-08-19T07:13:33;16.57;;;13.97;;
5058;SDS011;2548;52.050;11.036;2022-08-19T07:16:03;21.47;;;13.70;;
5058;SDS011;2548;52.050;11.036;2022-08-19T07:18:30;15.43;;;13.67;;
5058;SDS011;2548;52.050;11.036;2022-08-19T07:21:02;21.70;;;13.40;;
5058;SDS011;2548;52.050;11.036;2022-08-19T07:23:30;14.13;;;12.63;;
5058;SDS011;2548;52.050;11.036;2022-08-19T07:25:58;15.70;;;12.00;;
5058;SDS011;2548;52.050;11.036;2022-08-19T07:28:33;17.80;;;12.23;;
5058;SDS011;2548;52.050;11.036;2022-08-19T07:31:05;20.67;;;12.33;;
5058;SDS011;2548;52.050;11.036;2022-08-19T07:33:32;15.07;;;12.53;;
5058;SDS011;2548;52.050;11.036;2022-08-19T07:36:02;14.15;;;12.43;;
5058;SDS011;2548;52.050;11.036;2022-08-19T07:38:30;18.33;;;10.97;;
5058;SDS011;2548;52.050;11.036;2022-08-19T07:40:58;15.03;;;13.07;;
5058;SDS011;2548;52.050;11.036;2022-08-19T07:43:27;17.50;;;11.97;;
5058;SDS011;2548;52.050;11.036;2022-08-19T07:45:55;16.73;;;13.10;;
5058;SDS011;2548;52.050;11.036;2022-08-19T07:48:23;18.93;;;12.67;;
5058;SDS011;2548;52.050;11.036;2022-08-19T07:50:51;16.70;;;12.80;;
5058;SDS011;2548;52.050;11.036;2022-08-19T07:53:20;16.33;;;11.73;;
5058;SDS011;2548;52.050;11.036;2022-08-19T07:55:47;12.20;;;10.90;;
5058;SDS011;2548;52.050;11.036;2022-08-19T07:58:18;16.77;;;11.13;;
5058;SDS011;2548;52.050;11.036;2022-08-19T08:00:50;21.10;;;11.53;;
5058;SDS011;2548;52.050;11.036;2022-08-19T08:03:19;17.27;;;12.20;;
5058;SDS011;2548;52.050;11.036;2022-08-19T08:06:07;20.00;;;12.07;;
5058;SDS011;2548;52.050;11.036;2022-08-19T08:08:52;14.17;;;12.70;;
5058;SDS011;2548;52.050;11.036;2022-08-19T08:11:38;16.17;;;12.00;;
5058;SDS011;2548;52.050;11.036;2022-08-19T08:14:06;20.30;;;13.50;;
5058;SDS011;2548;52.050;11.036;2022-08-19T08:16:36;27.80;;;14.03;;
5058;SDS011;2548;52.050;11.036;2022-08-19T08:19:05;18.03;;;14.07;;
5058;SDS011;2548;52.050;11.036;2022-08-19T08:21:33;15.67;;;12.13;;
5058;SDS011;2548;52.050;11.036;2022-08-19T08:24:00;16.63;;;13.83;;
5058;SDS011;2548;52.050;11.036;2022-08-19T08:26:28;15.53;;;12.60;;
5058;SDS011;2548;52.050;11.036;2022-08-19T08:28:55;16.50;;;12.77;;
5058;SDS011;2548;52.050;11.036;2022-08-19T08:31:23;16.77;;;14.20;;
5058;SDS011;2548;52.050;11.036;2022-08-19T08:33:52;16.42;;;12.10;;
5058;SDS011;2548;52.050;11.036;2022-08-19T08:36:19;15.73;;;12.90;;
5058;SDS011;2548;52.050;11.036;2022-08-19T08:38:47;17.53;;;12.03;;
5058;SDS011;2548;52.050;11.036;2022-08-19T08:41:17;21.07;;;12.30;;
5058;SDS011;2548;52.050;11.036;2022-08-19T08:43:49;21.45;;;13.35;;
5058;SDS011;2548;52.050;11.036;2022-08-19T08:46:19;14.50;;;11.67;;
5058;SDS011;2548;52.050;11.036;2022-08-19T08:48:54;16.27;;;13.23;;
5058;SDS011;2548;52.050;11.036;2022-08-19T08:51:26;19.10;;;11.90;;
5058;SDS011;2548;52.050;11.036;2022-08-19T08:53:58;15.30;;;11.20;;
5058;SDS011;2548;52.050;11.036;2022-08-19T08:56:28;13.43;;;10.83;;
5058;SDS011;2548;52.050;11.036;2022-08-19T08:58:58;14.03;;;10.33;;
5058;SDS011;2548;52.050;11.036;2022-08-19T09:01:29;14.57;;;10.27;;
5058;SDS011;2548;52.050;11.036;2022-08-19T09:03:58;10.93;;;9.83;;
5058;SDS011;2548;52.050;11.036;2022-08-19T09:06:26;19.40;;;10.33;;
5058;SDS011;2548;52.050;11.036;2022-08-19T09:09:04;12.10;;;9.67;;
5058;SDS011;2548;52.050;11.036;2022-08-19T09:11:40;10.60;;;9.27;;
5058;SDS011;2548;52.050;11.036;2022-08-19T09:14:22;13.23;;;9.70;;
5058;SDS011;2548;52.050;11.036;2022-08-19T09:16:58;11.90;;;9.53;;
5058;SDS011;2548;52.050;11.036;2022-08-19T09:19:27;12.60;;;8.53;;
5058;SDS011;2548;52.050;11.036;2022-08-19T09:21:55;13.80;;;9.50;;
5058;SDS011;2548;52.050;11.036;2022-08-19T09:24:22;11.43;;;8.80;;
5058;SDS011;2548;52.050;11.036;2022-08-19T09:26:50;13.93;;;10.37;;
5058;SDS011;2548;52.050;11.036;2022-08-19T09:29:17;12.53;;;9.90;;
5058;SDS011;2548;52.050;11.036;2022-08-19T09:31:46;10.80;;;9.20;;
5058;SDS011;2548;52.050;11.036;2022-08-19T09:34:13;9.17;;;8.27;;
5058;SDS011;2548;52.050;11.036;2022-08-19T09:36:42;9.17;;;8.23;;
5058;SDS011;2548;52.050;11.036;2022-08-19T09:39:09;9.13;;;8.23;;
5058;SDS011;2548;52.050;11.036;2022-08-19T09:41:37;11.97;;;7.90;;
5058;SDS011;2548;52.050;11.036;2022-08-19T09:44:04;18.65;;;8.52;;
5058;SDS011;2548;52.050;11.036;2022-08-19T09:46:32;15.43;;;8.80;;
5058;SDS011;2548;52.050;11.036;2022-08-19T09:48:59;10.60;;;8.80;;
5058;SDS011;2548;52.050;11.036;2022-08-19T09:51:27;10.33;;;7.37;;
5058;SDS011;2548;52.050;11.036;2022-08-19T09:53:58;8.07;;;7.30;;
5058;SDS011;2548;52.050;11.036;2022-08-19T09:56:27;7.90;;;7.00;;
5058;SDS011;2548;52.050;11.036;2022-08-19T09:58:57;7.30;;;6.70;;
5058;SDS011;2548;52.050;11.036;2022-08-19T10:01:26;12.43;;;8.17;;
5058;SDS011;2548;52.050;11.036;2022-08-19T10:03:55;7.60;;;7.00;;
5058;SDS011;2548;52.050;11.036;2022-08-19T10:06:25;8.97;;;8.10;;
5058;SDS011;2548;52.050;11.036;2022-08-19T10:08:58;8.90;;;7.87;;
5058;SDS011;2548;52.050;11.036;2022-08-19T10:11:26;8.10;;;6.70;;
5058;SDS011;2548;52.050;11.036;2022-08-19T10:13:54;13.27;;;6.80;;
5058;SDS011;2548;52.050;11.036;2022-08-19T10:16:22;10.57;;;7.60;;
5058;SDS011;2548;52.050;11.036;2022-08-19T10:18:51;7.77;;;7.07;;
5058;SDS011;2548;52.050;11.036;2022-08-19T10:21:21;8.57;;;7.70;;
5058;SDS011;2548;52.050;11.036;2022-08-19T10:23:51;9.50;;;7.43;;
5058;SDS011;2548;52.050;11.036;2022-08-19T10:26:24;8.47;;;6.97;;
5058;SDS011;2548;52.050;11.036;2022-08-19T10:28:52;11.07;;;7.87;;
5058;SDS011;2548;52.050;11.036;2022-08-19T10:31:21;6.97;;;6.27;;
5058;SDS011;2548;52.050;11.036;2022-08-19T10:33:49;6.70;;;6.10;;
5058;SDS011;2548;52.050;11.036;2022-08-19T10:36:20;7.10;;;6.40;;
5058;SDS011;2548;52.050;11.036;2022-08-19T10:38:51;7.13;;;6.00;;
5058;SDS011;2548;52.050;11.036;2022-08-19T10:41:20;8.40;;;7.03;;
5058;SDS011;2548;52.050;11.036;2022-08-19T10:43:51;7.17;;;6.57;;
5058;SDS011;2548;52.050;11.036;2022-08-19T10:46:20;7.77;;;7.00;;
5058;SDS011;2548;52.050;11.036;2022-08-19T10:48:49;7.40;;;6.73;;
5058;SDS011;2548;52.050;11.036;2022-08-19T10:51:17;8.77;;;7.53;;
5058;SDS011;2548;52.050;11.036;2022-08-19T10:54:02;12.97;;;7.20;;
5058;SDS011;2548;52.050;11.036;2022-08-19T10:56:32;8.10;;;7.23;;
5058;SDS011;2548;52.050;11.036;2022-08-19T10:59:17;11.67;;;6.80;;
5058;SDS011;2548;52.050;11.036;2022-08-19T11:01:46;8.07;;;7.40;;
5058;SDS011;2548;52.050;11.036;2022-08-19T11:04:15;14.17;;;6.93;;
5058;SDS011;2548;52.050;11.036;2022-08-19T11:06:43;8.97;;;7.70;;
5058;SDS011;2548;52.050;11.036;2022-08-19T11:09:13;8.93;;;8.03;;
5058;SDS011;2548;52.050;11.036;2022-08-19T11:11:42;14.83;;;8.17;;
5058;SDS011;2548;52.050;11.036;2022-08-19T11:14:11;8.90;;;8.17;;
5058;SDS011;2548;52.050;11.036;2022-08-19T11:16:40;8.57;;;7.50;;
5058;SDS011;2548;52.050;11.036;2022-08-19T11:19:09;8.50;;;7.33;;
5058;SDS011;2548;52.050;11.036;2022-08-19T11:21:39;10.17;;;8.17;;
5058;SDS011;2548;52.050;11.036;2022-08-19T11:24:09;8.17;;;7.57;;
5058;SDS011;2548;52.050;11.036;2022-08-19T11:26:38;9.17;;;8.27;;
5058;SDS011;2548;52.050;11.036;2022-08-19T11:29:09;9.67;;;8.87;;
5058;SDS011;2548;52.050;11.036;2022-08-19T11:31:39;9.23;;;8.43;;
5058;SDS011;2548;52.050;11.036;2022-08-19T11:34:09;8.63;;;7.93;;
5058;SDS011;2548;52.050;11.036;2022-08-19T11:36:38;9.20;;;8.33;;
5058;SDS011;2548;52.050;11.036;2022-08-19T11:39:08;10.23;;;8.60;;
5058;SDS011;2548;52.050;11.036;2022-08-19T11:41:37;10.30;;;9.30;;
5058;SDS011;2548;52.050;11.036;2022-08-19T11:44:05;11.77;;;10.50;;
5058;SDS011;2548;52.050;11.036;2022-08-19T11:46:35;12.10;;;10.90;;
5058;SDS011;2548;52.050;11.036;2022-08-19T11:49:04;14.90;;;11.37;;
5058;SDS011;2548;52.050;11.036;2022-08-19T11:51:33;13.67;;;12.30;;
5058;SDS011;2548;52.050;11.036;2022-08-19T11:54:01;11.00;;;9.93;;
5058;SDS011;2548;52.050;11.036;2022-08-19T11:56:29;10.53;;;9.50;;
5058;SDS011;2548;52.050;11.036;2022-08-19T11:58:56;11.10;;;10.13;;
5058;SDS011;2548;52.050;11.036;2022-08-19T12:01:25;11.40;;;9.57;;
5058;SDS011;2548;52.050;11.036;2022-08-19T12:03:55;13.20;;;8.77;;
5058;SDS011;2548;52.050;11.036;2022-08-19T12:06:24;8.70;;;8.00;;
5058;SDS011;2548;52.050;11.036;2022-08-19T12:08:54;7.97;;;7.37;;
5058;SDS011;2548;52.050;11.036;2022-08-19T12:11:22;9.40;;;8.63;;
5058;SDS011;2548;52.050;11.036;2022-08-19T12:13:50;8.00;;;7.40;;
5058;SDS011;2548;52.050;11.036;2022-08-19T12:16:18;8.77;;;7.97;;
5058;SDS011;2548;52.050;11.036;2022-08-19T12:18:48;8.83;;;8.13;;
5058;SDS011;2548;52.050;11.036;2022-08-19T12:21:18;8.17;;;7.47;;
5058;SDS011;2548;52.050;11.036;2022-08-19T12:23:48;7.00;;;6.37;;
5058;SDS011;2548;52.050;11.036;2022-08-19T12:26:17;9.40;;;7.10;;
5058;SDS011;2548;52.050;11.036;2022-08-19T12:28:44;7.63;;;6.93;;
5058;SDS011;2548;52.050;11.036;2022-08-19T12:31:14;7.17;;;6.67;;
5058;SDS011;2548;52.050;11.036;2022-08-19T12:33:41;9.17;;;6.80;;
5058;SDS011;2548;52.050;11.036;2022-08-19T12:36:10;9.23;;;7.37;;
5058;SDS011;2548;52.050;11.036;2022-08-19T12:38:40;8.70;;;7.90;;
5058;SDS011;2548;52.050;11.036;2022-08-19T12:41:10;7.70;;;7.00;;
5058;SDS011;2548;52.050;11.036;2022-08-19T12:43:39;9.37;;;6.67;;
5058;SDS011;2548;52.050;11.036;2022-08-19T12:46:08;7.07;;;6.47;;
5058;SDS011;2548;52.050;11.036;2022-08-19T12:48:37;15.33;;;6.60;;
5058;SDS011;2548;52.050;11.036;2022-08-19T12:51:07;6.37;;;5.97;;
5058;SDS011;2548;52.050;11.036;2022-08-19T12:53:37;7.73;;;6.77;;
5058;SDS011;2548;52.050;11.036;2022-08-19T12:56:07;6.57;;;6.17;;
5058;SDS011;2548;52.050;11.036;2022-08-19T12:58:36;6.37;;;5.90;;
5058;SDS011;2548;52.050;11.036;2022-08-19T13:01:07;6.27;;;5.87;;
5058;SDS011;2548;52.050;11.036;2022-08-19T13:03:37;6.60;;;6.00;;
5058;SDS011;2548;52.050;11.036;2022-08-19T13:06:05;7.57;;;6.23;;
5058;SDS011;2548;52.050;11.036;2022-08-19T13:08:32;7.00;;;6.50;;
5058;SDS011;2548;52.050;11.036;2022-08-19T13:11:07;7.60;;;7.00;;
5058;SDS011;2548;52.050;11.036;2022-08-19T13:13:38;6.93;;;6.33;;
5058;SDS011;2548;52.050;11.036;2022-08-19T13:16:07;7.13;;;6.57;;
5058;SDS011;2548;52.050;11.036;2022-08-19T13:18:35;6.90;;;6.30;;
5058;SDS011;2548;52.050;11.036;2022-08-19T13:21:03;7.20;;;6.17;;
5058;SDS011;2548;52.050;11.036;2022-08-19T13:23:31;7.30;;;6.80;;
5058;SDS011;2548;52.050;11.036;2022-08-19T13:26:00;22.93;;;4.70;;
5058;SDS011;2548;52.050;11.036;2022-08-19T13:28:31;6.20;;;5.53;;
5058;SDS011;2548;52.050;11.036;2022-08-19T13:31:14;6.07;;;5.47;;
5058;SDS011;2548;52.050;11.036;2022-08-19T13:34:00;5.00;;;4.63;;
5058;SDS011;2548;52.050;11.036;2022-08-19T13:36:28;6.30;;;5.90;;
5058;SDS011;2548;52.050;11.036;2022-08-19T13:38:55;5.70;;;5.07;;
5058;SDS011;2548;52.050;11.036;2022-08-19T13:41:23;4.67;;;4.40;;
5058;SDS011;2548;52.050;11.036;2022-08-19T13:43:52;5.90;;;5.40;;
5058;SDS011;2548;52.050;11.036;2022-08-19T13:46:20;6.50;;;5.80;;
5058;SDS011;2548;52.050;11.036;2022-08-19T13:48:47;4.97;;;4.67;;
5058;SDS011;2548;52.050;11.036;2022-08-19T13:51:15;5.97;;;5.50;;
5058;SDS011;2548;52.050;11.036;2022-08-19T13:53:43;5.90;;;5.40;;
5058;SDS011;2548;52.050;11.036;2022-08-19T13:56:11;6.03;;;5.73;;
5058;SDS011;2548;52.050;11.036;2022-08-19T13:58:40;6.43;;;5.50;;
5058;SDS011;2548;52.050;11.036;2022-08-19T14:01:08;6.50;;;5.90;;
5058;SDS011;2548;52.050;11.036;2022-08-19T14:03:37;5.17;;;4.83;;
5058;SDS011;2548;52.050;11.036;2022-08-19T14:06:05;6.33;;;4.97;;
5058;SDS011;2548;52.050;11.036;2022-08-19T14:08:32;5.47;;;5.07;;
5058;SDS011;2548;52.050;11.036;2022-08-19T14:11:00;5.73;;;5.20;;
5058;SDS011;2548;52.050;11.036;2022-08-19T14:13:28;5.60;;;5.00;;
5058;SDS011;2548;52.050;11.036;2022-08-19T14:15:55;6.43;;;5.77;;
5058;SDS011;2548;52.050;11.036;2022-08-19T14:18:25;5.50;;;5.00;;
5058;SDS011;2548;52.050;11.036;2022-08-19T14:20:52;4.80;;;4.50;;
5058;SDS011;2548;52.050;11.036;2022-08-19T14:23:20;5.87;;;5.23;;
5058;SDS011;2548;52.050;11.036;2022-08-19T14:25:47;4.87;;;4.47;;
5058;SDS011;2548;52.050;11.036;2022-08-19T14:28:15;4.83;;;4.53;;
5058;SDS011;2548;52.050;11.036;2022-08-19T14:30:43;4.90;;;4.60;;
5058;SDS011;2548;52.050;11.036;2022-08-19T14:33:10;4.80;;;4.50;;
5058;SDS011;2548;52.050;11.036;2022-08-19T14:35:40;4.80;;;4.50;;
5058;SDS011;2548;52.050;11.036;2022-08-19T14:38:15;5.53;;;5.03;;
5058;SDS011;2548;52.050;11.036;2022-08-19T14:40:43;4.90;;;4.40;;
5058;SDS011;2548;52.050;11.036;2022-08-19T14:43:11;4.10;;;3.77;;
5058;SDS011;2548;52.050;11.036;2022-08-19T14:45:39;4.20;;;4.00;;
5058;SDS011;2548;52.050;11.036;2022-08-19T14:48:07;4.13;;;3.87;;
5058;SDS011;2548;52.050;11.036;2022-08-19T14:50:36;4.20;;;4.00;;
5058;SDS011;2548;52.050;11.036;2022-08-19T14:53:06;4.50;;;4.20;;
5058;SDS011;2548;52.050;11.036;2022-08-19T14:55:35;4.23;;;4.00;;
5058;SDS011;2548;52.050;11.036;2022-08-19T14:58:02;6.23;;;4.10;;